Impacts TAF Board
For situational awareness. Not to be used for flight planning purposes.
IDs:

KIAH - Houston/Bush Intl, TX, US

Issued at 2332 UTC 05 Dec 2019
Updated at 0119 UTC 06 Dec 2019
Potential Impact None Slight Moderate High
Time0053Z 06/02Z 06/03Z 06/04Z 06/05Z 06/06Z 06/07Z 06/08Z 06/09Z 06/10Z 06/11Z 06/12Z 06/13Z 06/14Z>>
Type OBS PRVL PRVL PRVL PRVL PRVL PRVL PRVL PRVL PRVL PRVL PRVL
  [TEMP]  
PRVL
  [TEMP]  
PRVL
  [TEMP]  
VIS 10 >6 >6 >6 >6 >6 >6 >6 >6 >6 >6 >6 >6 >6
CIG 250 250 250 250 250 250 250 250 50 50 50 50
  [15]  
50
  [15]  
50
  [15]  
Cover BKN BKN BKN BKN BKN BKN BKN BKN BKN BKN BKN BKN
  [BKN]  
BKN
  [BKN]  
BKN
  [BKN]  
FltCat VFR VFR VFR VFR VFR VFR VFR VFR VFR VFR VFR VFR
  [MVFR]  
VFR
  [MVFR]  
VFR
  [MVFR]  
WX -- -- -- -- -- -- -- -- -- -- -- --
  [--]  
--
  [--]  
--
  [--]  
WDir 160 180 180 180 180 180 180 180 VRB VRB VRB VRB
[VRB]
VRB
[VRB]
VRB
[VRB]
WSpd 7 7 7 7 7 7 7 7 4 4 4 4
  [4]  
4
  [4]  
4
  [4]  
WGst -- -- -- -- -- -- -- -- -- -- -- --
  [--]  
--
  [--]  
--
  [--]  
Raw TAF
KIAH 052332Z 0600/0706 18007KT P6SM SCT150 BKN250
  FM060900 VRB04KT P6SM SCT025 BKN050
  TEMPO 0612/0615 BKN015
  FM061600 30011KT P6SM OVC250
  FM062000 32008KT P6SM FEW250


Raw METAR
KIAH 060053Z 16007KT 10SM FEW030 FEW160 BKN250 20/14 A3000 RMK AO2 SLP160 T02000144
KIAH 052353Z 17011KT 10SM FEW035 SCT150 BKN250 21/14 A2999 RMK AO2 SLP154 T02110144 10250 20211 53004
KIAH 052253Z 18007KT 10SM FEW041 SCT150 BKN250 22/14 A2997 RMK AO2 SLP148 T02220144

METAR Board
Radar Display
Forecast Discussion
For situational awareness. Not to be used for flight planning purposes.